sensor_id;sensor_type;location;lat;lon;timestamp;pressure;altitude;pressure_sealevel;temperature;humidity
56600;BME280;51832;48.152;11.530;2023-02-16T00:02:00;96465.16;;;7.65;61.99
56600;BME280;51832;48.152;11.530;2023-02-16T00:07:01;96466.16;;;7.79;61.44
56600;BME280;51832;48.152;11.530;2023-02-16T00:12:01;96467.47;;;7.60;60.69
56600;BME280;51832;48.152;11.530;2023-02-16T00:17:20;96466.84;;;7.58;61.46
56600;BME280;51832;48.152;11.530;2023-02-16T00:22:21;96453.88;;;7.65;61.06
56600;BME280;51832;48.152;11.530;2023-02-16T00:27:21;96441.94;;;7.62;60.99
56600;BME280;51832;48.152;11.530;2023-02-16T00:32:21;96437.09;;;7.36;61.10
56600;BME280;51832;48.152;11.530;2023-02-16T00:37:22;96429.66;;;7.25;61.72
56600;BME280;51832;48.152;11.530;2023-02-16T00:42:26;96422.97;;;7.90;59.43
56600;BME280;51832;48.152;11.530;2023-02-16T00:47:35;96415.91;;;8.19;58.25
56600;BME280;51832;48.152;11.530;2023-02-16T00:52:38;96421.50;;;8.31;57.95
56600;BME280;51832;48.152;11.530;2023-02-16T00:57:42;96416.34;;;8.38;57.30
56600;BME280;51832;48.152;11.530;2023-02-16T01:02:45;96416.63;;;8.43;57.17
56600;BME280;51832;48.152;11.530;2023-02-16T01:07:46;96416.16;;;8.25;56.32
56600;BME280;51832;48.152;11.530;2023-02-16T01:13:05;96426.03;;;7.93;58.50
56600;BME280;51832;48.152;11.530;2023-02-16T01:18:05;96408.00;;;7.31;60.27
56600;BME280;51832;48.152;11.530;2023-02-16T01:23:06;96426.06;;;7.41;60.54
56600;BME280;51832;48.152;11.530;2023-02-16T01:28:19;96429.72;;;7.17;61.36
56600;BME280;51832;48.152;11.530;2023-02-16T01:33:20;96436.09;;;6.77;61.45
56600;BME280;51832;48.152;11.530;2023-02-16T01:38:23;96441.00;;;6.49;62.37
56600;BME280;51832;48.152;11.530;2023-02-16T01:43:38;96438.63;;;5.84;63.76
56600;BME280;51832;48.152;11.530;2023-02-16T01:48:42;96435.03;;;5.93;64.14
56600;BME280;51832;48.152;11.530;2023-02-16T01:53:45;96436.50;;;6.35;61.79
56600;BME280;51832;48.152;11.530;2023-02-16T01:58:54;96425.44;;;6.78;60.73
56600;BME280;51832;48.152;11.530;2023-02-16T02:03:55;96429.53;;;6.81;60.51
56600;BME280;51832;48.152;11.530;2023-02-16T02:09:46;96423.06;;;6.92;59.48
56600;BME280;51832;48.152;11.530;2023-02-16T02:14:51;96404.88;;;6.75;58.25
56600;BME280;51832;48.152;11.530;2023-02-16T02:41:07;96399.44;;;7.00;59.02
56600;BME280;51832;48.152;11.530;2023-02-16T02:46:32;96402.75;;;7.17;59.00
56600;BME280;51832;48.152;11.530;2023-02-16T02:51:34;96393.44;;;7.14;56.87
56600;BME280;51832;48.152;11.530;2023-02-16T02:56:55;96397.53;;;6.94;59.27
56600;BME280;51832;48.152;11.530;2023-02-16T03:02:16;96389.38;;;7.11;58.37
56600;BME280;51832;48.152;11.530;2023-02-16T03:07:17;96394.81;;;7.10;59.29
56600;BME280;51832;48.152;11.530;2023-02-16T03:12:19;96388.59;;;6.88;60.44
56600;BME280;51832;48.152;11.530;2023-02-16T03:17:40;96391.56;;;6.31;61.50
56600;BME280;51832;48.152;11.530;2023-02-16T03:23:00;96383.81;;;6.15;61.66
56600;BME280;51832;48.152;11.530;2023-02-16T03:28:23;96393.19;;;6.40;61.83
56600;BME280;51832;48.152;11.530;2023-02-16T03:33:44;96397.88;;;6.45;61.46
56600;BME280;51832;48.152;11.530;2023-02-16T03:38:45;96395.34;;;6.29;61.45
56600;BME280;51832;48.152;11.530;2023-02-16T03:43:45;96400.53;;;6.37;61.58
56600;BME280;51832;48.152;11.530;2023-02-16T03:48:47;96402.34;;;6.36;61.38
56600;BME280;51832;48.152;11.530;2023-02-16T03:53:47;96413.34;;;6.24;61.71
56600;BME280;51832;48.152;11.530;2023-02-16T03:58:49;96415.97;;;6.24;60.35
56600;BME280;51832;48.152;11.530;2023-02-16T04:03:49;96419.41;;;6.24;60.98
56600;BME280;51832;48.152;11.530;2023-02-16T04:08:50;96413.34;;;6.24;60.59
56600;BME280;51832;48.152;11.530;2023-02-16T04:13:50;96428.94;;;6.09;61.43
56600;BME280;51832;48.152;11.530;2023-02-16T04:18:50;96418.66;;;6.07;61.47
56600;BME280;51832;48.152;11.530;2023-02-16T04:23:51;96422.06;;;6.08;61.38
56600;BME280;51832;48.152;11.530;2023-02-16T04:28:51;96414.56;;;6.05;60.94
56600;BME280;51832;48.152;11.530;2023-02-16T04:33:52;96418.16;;;6.04;60.75
56600;BME280;51832;48.152;11.530;2023-02-16T04:38:52;96412.78;;;6.05;61.11
56600;BME280;51832;48.152;11.530;2023-02-16T04:43:53;96417.88;;;6.61;59.37
56600;BME280;51832;48.152;11.530;2023-02-16T04:48:53;96422.09;;;8.84;74.02
56600;BME280;51832;48.152;11.530;2023-02-16T04:53:54;96409.09;;;9.46;68.82
56600;BME280;51832;48.152;11.530;2023-02-16T04:58:55;96413.41;;;9.82;61.97
56600;BME280;51832;48.152;11.530;2023-02-16T05:03:55;96413.59;;;9.52;49.92
56600;BME280;51832;48.152;11.530;2023-02-16T05:08:56;96415.94;;;8.55;51.34
56600;BME280;51832;48.152;11.530;2023-02-16T05:13:57;96421.66;;;7.41;54.59
56600;BME280;51832;48.152;11.530;2023-02-16T05:19:16;96424.81;;;7.37;54.76
56600;BME280;51832;48.152;11.530;2023-02-16T05:24:17;96419.94;;;6.96;55.58
56600;BME280;51832;48.152;11.530;2023-02-16T05:29:17;96410.03;;;6.84;55.13
56600;BME280;51832;48.152;11.530;2023-02-16T05:34:18;96414.03;;;6.71;55.84
56600;BME280;51832;48.152;11.530;2023-02-16T05:39:18;96423.44;;;6.58;55.37
56600;BME280;51832;48.152;11.530;2023-02-16T05:44:19;96438.31;;;6.57;56.65
56600;BME280;51832;48.152;11.530;2023-02-16T05:49:20;96438.59;;;6.39;56.96
56600;BME280;51832;48.152;11.530;2023-02-16T05:54:21;96444.00;;;6.30;59.80
56600;BME280;51832;48.152;11.530;2023-02-16T05:59:21;96444.44;;;6.11;59.05
56600;BME280;51832;48.152;11.530;2023-02-16T06:04:22;96448.53;;;6.13;58.88
56600;BME280;51832;48.152;11.530;2023-02-16T06:09:22;96449.66;;;6.50;57.72
56600;BME280;51832;48.152;11.530;2023-02-16T06:14:23;96455.44;;;6.37;57.97
56600;BME280;51832;48.152;11.530;2023-02-16T06:19:24;96461.91;;;6.49;56.91
56600;BME280;51832;48.152;11.530;2023-02-16T06:24:24;96461.59;;;6.44;57.39
56600;BME280;51832;48.152;11.530;2023-02-16T06:29:25;96466.31;;;6.49;57.75
56600;BME280;51832;48.152;11.530;2023-02-16T06:34:26;96466.25;;;6.57;56.92
56600;BME280;51832;48.152;11.530;2023-02-16T06:39:27;96473.50;;;6.47;57.33
56600;BME280;51832;48.152;11.530;2023-02-16T06:44:27;96477.03;;;6.62;57.17
56600;BME280;51832;48.152;11.530;2023-02-16T06:49:28;96475.88;;;6.64;57.52
56600;BME280;51832;48.152;11.530;2023-02-16T06:54:29;96483.50;;;6.74;56.40
56600;BME280;51832;48.152;11.530;2023-02-16T06:59:30;96486.38;;;7.33;55.89
56600;BME280;51832;48.152;11.530;2023-02-16T07:04:30;96490.34;;;7.81;53.29
56600;BME280;51832;48.152;11.530;2023-02-16T07:09:31;96491.38;;;7.95;53.71
56600;BME280;51832;48.152;11.530;2023-02-16T07:14:32;96498.06;;;8.27;53.15
56600;BME280;51832;48.152;11.530;2023-02-16T07:19:32;96495.38;;;8.49;52.86
56600;BME280;51832;48.152;11.530;2023-02-16T07:24:33;96496.06;;;8.73;52.54
56600;BME280;51832;48.152;11.530;2023-02-16T07:29:34;96506.13;;;8.90;51.80
56600;BME280;51832;48.152;11.530;2023-02-16T07:34:34;96498.66;;;9.09;50.83
56600;BME280;51832;48.152;11.530;2023-02-16T07:39:35;96502.44;;;9.21;50.36
56600;BME280;51832;48.152;11.530;2023-02-16T07:44:35;96503.84;;;9.45;49.21
56600;BME280;51832;48.152;11.530;2023-02-16T07:49:36;96507.59;;;9.57;49.08
56600;BME280;51832;48.152;11.530;2023-02-16T07:54:36;96509.13;;;9.73;48.94
56600;BME280;51832;48.152;11.530;2023-02-16T07:59:37;96519.25;;;9.69;48.40
56600;BME280;51832;48.152;11.530;2023-02-16T08:04:37;96507.84;;;9.83;49.54
56600;BME280;51832;48.152;11.530;2023-02-16T08:09:38;96517.84;;;9.73;48.99
56600;BME280;51832;48.152;11.530;2023-02-16T08:14:39;96517.91;;;9.58;50.18
56600;BME280;51832;48.152;11.530;2023-02-16T08:19:40;96521.47;;;10.00;49.77
56600;BME280;51832;48.152;11.530;2023-02-16T08:24:40;96530.56;;;10.25;50.21
56600;BME280;51832;48.152;11.530;2023-02-16T08:29:40;96523.13;;;10.29;49.62
56600;BME280;51832;48.152;11.530;2023-02-16T08:34:41;96522.94;;;10.72;48.65
56600;BME280;51832;48.152;11.530;2023-02-16T08:39:41;96519.81;;;11.09;47.67
56600;BME280;51832;48.152;11.530;2023-02-16T08:44:42;96525.72;;;11.11;47.20
56600;BME280;51832;48.152;11.530;2023-02-16T08:49:42;96526.97;;;11.28;47.58
56600;BME280;51832;48.152;11.530;2023-02-16T08:54:43;96517.91;;;10.77;48.65
56600;BME280;51832;48.152;11.530;2023-02-16T08:59:44;96514.47;;;10.76;49.05
56600;BME280;51832;48.152;11.530;2023-02-16T09:04:44;96522.50;;;10.68;48.26
56600;BME280;51832;48.152;11.530;2023-02-16T09:09:44;96527.09;;;11.00;47.50
56600;BME280;51832;48.152;11.530;2023-02-16T09:14:45;96525.91;;;11.03;46.46
56600;BME280;51832;48.152;11.530;2023-02-16T09:19:45;96526.28;;;11.00;46.92
56600;BME280;51832;48.152;11.530;2023-02-16T09:24:46;96520.63;;;11.03;46.92
56600;BME280;51832;48.152;11.530;2023-02-16T09:29:46;96525.66;;;10.91;46.17
56600;BME280;51832;48.152;11.530;2023-02-16T09:34:47;96533.03;;;10.61;47.63
56600;BME280;51832;48.152;11.530;2023-02-16T09:39:49;96529.38;;;11.23;46.12
56600;BME280;51832;48.152;11.530;2023-02-16T09:45:00;96536.50;;;11.29;46.26
56600;BME280;51832;48.152;11.530;2023-02-16T09:50:12;96529.03;;;11.39;46.39
56600;BME280;51832;48.152;11.530;2023-02-16T09:55:15;96533.47;;;11.39;45.83
56600;BME280;51832;48.152;11.530;2023-02-16T10:05:29;96526.41;;;12.38;43.84
56600;BME280;51832;48.152;11.530;2023-02-16T10:10:43;96536.59;;;12.08;43.59
56600;BME280;51832;48.152;11.530;2023-02-16T10:15:47;96534.34;;;12.19;43.54
56600;BME280;51832;48.152;11.530;2023-02-16T10:20:51;96527.63;;;12.42;42.63
56600;BME280;51832;48.152;11.530;2023-02-16T10:26:05;96528.56;;;12.61;42.36
56600;BME280;51832;48.152;11.530;2023-02-16T10:31:17;96531.41;;;12.60;40.75
56600;BME280;51832;48.152;11.530;2023-02-16T10:36:42;96530.50;;;12.08;41.38
56600;BME280;51832;48.152;11.530;2023-02-16T10:41:57;96527.59;;;13.00;39.98
56600;BME280;51832;48.152;11.530;2023-02-16T10:47:02;96524.53;;;12.52;40.40
56600;BME280;51832;48.152;11.530;2023-02-16T10:52:06;96516.59;;;12.59;38.83
56600;BME280;51832;48.152;11.530;2023-02-16T10:57:11;96513.78;;;13.05;38.23
56600;BME280;51832;48.152;11.530;2023-02-16T11:02:23;96510.69;;;12.70;39.01
56600;BME280;51832;48.152;11.530;2023-02-16T11:07:27;96527.78;;;13.05;38.26
56600;BME280;51832;48.152;11.530;2023-02-16T11:12:29;96498.88;;;14.05;36.55
56600;BME280;51832;48.152;11.530;2023-02-16T11:17:31;96494.00;;;14.02;36.37
56600;BME280;51832;48.152;11.530;2023-02-16T11:22:37;96492.00;;;13.47;37.25
56600;BME280;51832;48.152;11.530;2023-02-16T11:27:48;96497.03;;;13.80;36.93
56600;BME280;51832;48.152;11.530;2023-02-16T11:32:50;96486.50;;;13.49;36.81
56600;BME280;51832;48.152;11.530;2023-02-16T11:37:50;96487.91;;;13.51;36.90
56600;BME280;51832;48.152;11.530;2023-02-16T11:42:53;96469.66;;;13.68;36.40
56600;BME280;51832;48.152;11.530;2023-02-16T11:47:59;96469.22;;;13.96;36.28
56600;BME280;51832;48.152;11.530;2023-02-16T11:58:25;96440.97;;;14.70;34.34
56600;BME280;51832;48.152;11.530;2023-02-16T12:03:51;96434.47;;;15.14;33.47
56600;BME280;51832;48.152;11.530;2023-02-16T12:14:26;96422.09;;;15.49;31.84
56600;BME280;51832;48.152;11.530;2023-02-16T12:35:44;96393.72;;;15.50;29.98
56600;BME280;51832;48.152;11.530;2023-02-16T12:41:00;96408.63;;;16.21;29.04
56600;BME280;51832;48.152;11.530;2023-02-16T12:51:21;96409.22;;;15.11;29.15
56600;BME280;51832;48.152;11.530;2023-02-16T12:56:46;96393.16;;;16.06;28.11
56600;BME280;51832;48.152;11.530;2023-02-16T13:01:51;96382.47;;;15.78;27.91
56600;BME280;51832;48.152;11.530;2023-02-16T13:07:10;96379.00;;;16.52;27.56
56600;BME280;51832;48.152;11.530;2023-02-16T13:17:29;96362.09;;;17.49;25.99
56600;BME280;51832;48.152;11.530;2023-02-16T13:22:52;96362.59;;;17.46;26.04
56600;BME280;51832;48.152;11.530;2023-02-16T13:33:38;96355.78;;;17.88;25.27
56600;BME280;51832;48.152;11.530;2023-02-16T13:39:02;96351.53;;;17.70;25.22
56600;BME280;51832;48.152;11.530;2023-02-16T13:44:19;96362.25;;;17.42;25.39
56600;BME280;51832;48.152;11.530;2023-02-16T13:49:42;96354.28;;;18.14;24.59
56600;BME280;51832;48.152;11.530;2023-02-16T13:54:47;96349.09;;;17.86;24.90
56600;BME280;51832;48.152;11.530;2023-02-16T13:59:58;96349.47;;;17.94;24.82
56600;BME280;51832;48.152;11.530;2023-02-16T14:05:00;96353.63;;;18.07;24.71
56600;BME280;51832;48.152;11.530;2023-02-16T14:10:03;96335.44;;;18.64;23.81
56600;BME280;51832;48.152;11.530;2023-02-16T14:15:15;96334.06;;;19.90;22.50
56600;BME280;51832;48.152;11.530;2023-02-16T14:30:51;96330.38;;;24.16;17.47
56600;BME280;51832;48.152;11.530;2023-02-16T14:41:02;96331.50;;;26.25;15.19
56600;BME280;51832;48.152;11.530;2023-02-16T14:57:24;96326.34;;;24.13;16.06
56600;BME280;51832;48.152;11.530;2023-02-16T15:02:34;96319.50;;;25.90;15.01
56600;BME280;51832;48.152;11.530;2023-02-16T15:07:35;96326.91;;;25.98;14.90
56600;BME280;51832;48.152;11.530;2023-02-16T15:12:38;96300.84;;;25.93;14.97
56600;BME280;51832;48.152;11.530;2023-02-16T15:17:44;96304.34;;;26.21;14.30
56600;BME280;51832;48.152;11.530;2023-02-16T15:22:53;96307.00;;;24.59;15.91
56600;BME280;51832;48.152;11.530;2023-02-16T15:38:24;96314.78;;;25.17;15.49
56600;BME280;51832;48.152;11.530;2023-02-16T15:43:35;96309.22;;;23.17;17.18
56600;BME280;51832;48.152;11.530;2023-02-16T15:48:37;96316.00;;;20.94;19.08
56600;BME280;51832;48.152;11.530;2023-02-16T15:58:47;96317.34;;;19.25;21.31
56600;BME280;51832;48.152;11.530;2023-02-16T16:03:48;96327.09;;;19.14;21.40
56600;BME280;51832;48.152;11.530;2023-02-16T16:08:48;96328.66;;;18.78;21.55
56600;BME280;51832;48.152;11.530;2023-02-16T16:13:49;96327.94;;;18.39;22.16
56600;BME280;51832;48.152;11.530;2023-02-16T16:18:52;96319.66;;;18.14;22.39
56600;BME280;51832;48.152;11.530;2023-02-16T16:29:03;96326.19;;;18.06;22.90
56600;BME280;51832;48.152;11.530;2023-02-16T16:34:08;96333.00;;;18.19;24.07
56600;BME280;51832;48.152;11.530;2023-02-16T16:49:27;96340.91;;;17.92;23.74
56600;BME280;51832;48.152;11.530;2023-02-16T16:54:31;96342.41;;;17.83;23.72
56600;BME280;51832;48.152;11.530;2023-02-16T16:59:32;96345.72;;;17.90;23.71
56600;BME280;51832;48.152;11.530;2023-02-16T17:04:32;96348.13;;;17.58;23.89
56600;BME280;51832;48.152;11.530;2023-02-16T17:09:33;96339.66;;;17.78;23.88
56600;BME280;51832;48.152;11.530;2023-02-16T17:14:33;96338.59;;;17.79;23.80
56600;BME280;51832;48.152;11.530;2023-02-16T17:19:34;96346.28;;;17.42;24.10
56600;BME280;51832;48.152;11.530;2023-02-16T17:24:34;96349.81;;;16.69;24.71
56600;BME280;51832;48.152;11.530;2023-02-16T17:29:35;96359.38;;;16.42;25.17
56600;BME280;51832;48.152;11.530;2023-02-16T17:34:35;96359.28;;;16.37;25.26
56600;BME280;51832;48.152;11.530;2023-02-16T17:39:36;96342.69;;;16.18;25.45
56600;BME280;51832;48.152;11.530;2023-02-16T17:44:36;96353.94;;;15.96;25.27
56600;BME280;51832;48.152;11.530;2023-02-16T17:49:37;96365.81;;;15.47;25.62
56600;BME280;51832;48.152;11.530;2023-02-16T17:54:38;96357.16;;;15.17;26.39
56600;BME280;51832;48.152;11.530;2023-02-16T17:59:38;96355.31;;;15.29;25.96
56600;BME280;51832;48.152;11.530;2023-02-16T18:04:41;96360.03;;;15.15;26.28
56600;BME280;51832;48.152;11.530;2023-02-16T18:09:41;96366.28;;;14.91;26.67
56600;BME280;51832;48.152;11.530;2023-02-16T18:14:42;96365.41;;;15.09;26.58
56600;BME280;51832;48.152;11.530;2023-02-16T18:19:42;96366.84;;;14.93;26.63
56600;BME280;51832;48.152;11.530;2023-02-16T18:24:43;96354.72;;;15.27;26.58
56600;BME280;51832;48.152;11.530;2023-02-16T18:29:43;96353.78;;;15.21;26.86
56600;BME280;51832;48.152;11.530;2023-02-16T18:34:43;96363.84;;;15.43;26.74
56600;BME280;51832;48.152;11.530;2023-02-16T18:39:44;96375.16;;;15.38;26.85
56600;BME280;51832;48.152;11.530;2023-02-16T18:44:44;96371.34;;;15.46;26.65
56600;BME280;51832;48.152;11.530;2023-02-16T18:49:47;96364.91;;;15.77;26.84
56600;BME280;51832;48.152;11.530;2023-02-16T18:54:49;96381.19;;;15.57;26.96
56600;BME280;51832;48.152;11.530;2023-02-16T18:59:50;96372.63;;;15.43;27.12
56600;BME280;51832;48.152;11.530;2023-02-16T19:04:50;96379.88;;;15.48;27.40
56600;BME280;51832;48.152;11.530;2023-02-16T19:09:51;96374.91;;;15.28;27.70
56600;BME280;51832;48.152;11.530;2023-02-16T19:14:51;96390.47;;;15.24;28.05
56600;BME280;51832;48.152;11.530;2023-02-16T19:19:51;96377.44;;;15.35;27.96
56600;BME280;51832;48.152;11.530;2023-02-16T19:24:52;96379.84;;;15.24;28.25
56600;BME280;51832;48.152;11.530;2023-02-16T19:29:52;96381.97;;;15.04;28.56
56600;BME280;51832;48.152;11.530;2023-02-16T19:34:53;96377.28;;;15.18;28.49
56600;BME280;51832;48.152;11.530;2023-02-16T19:39:53;96378.84;;;14.96;29.03
56600;BME280;51832;48.152;11.530;2023-02-16T19:44:54;96385.81;;;14.78;29.04
56600;BME280;51832;48.152;11.530;2023-02-16T19:49:54;96381.84;;;14.87;29.09
56600;BME280;51832;48.152;11.530;2023-02-16T19:54:54;96384.50;;;14.87;29.27
56600;BME280;51832;48.152;11.530;2023-02-16T19:59:55;96385.78;;;14.67;29.77
56600;BME280;51832;48.152;11.530;2023-02-16T20:04:55;96386.50;;;14.44;30.54
56600;BME280;51832;48.152;11.530;2023-02-16T20:09:55;96380.00;;;14.21;31.10
56600;BME280;51832;48.152;11.530;2023-02-16T20:14:56;96366.63;;;14.16;31.36
56600;BME280;51832;48.152;11.530;2023-02-16T20:19:57;96365.72;;;14.22;31.44
56600;BME280;51832;48.152;11.530;2023-02-16T20:24:58;96377.66;;;14.13;31.96
56600;BME280;51832;48.152;11.530;2023-02-16T20:30:00;96376.59;;;13.96;32.55
56600;BME280;51832;48.152;11.530;2023-02-16T20:35:04;96380.88;;;13.79;33.13
56600;BME280;51832;48.152;11.530;2023-02-16T20:40:06;96378.72;;;13.69;33.27
56600;BME280;51832;48.152;11.530;2023-02-16T20:45:07;96373.38;;;13.94;33.14
56600;BME280;51832;48.152;11.530;2023-02-16T20:50:07;96363.44;;;14.08;32.85
56600;BME280;51832;48.152;11.530;2023-02-16T20:55:08;96363.00;;;13.74;33.79
56600;BME280;51832;48.152;11.530;2023-02-16T21:00:13;96360.28;;;13.81;33.77
56600;BME280;51832;48.152;11.530;2023-02-16T21:05:16;96361.75;;;13.59;34.20
56600;BME280;51832;48.152;11.530;2023-02-16T21:10:16;96368.88;;;13.33;35.07
56600;BME280;51832;48.152;11.530;2023-02-16T21:15:17;96357.34;;;13.52;34.54
56600;BME280;51832;48.152;11.530;2023-02-16T21:20:17;96368.59;;;13.66;34.42
56600;BME280;51832;48.152;11.530;2023-02-16T21:25:18;96363.47;;;13.46;34.85
56600;BME280;51832;48.152;11.530;2023-02-16T21:30:18;96366.13;;;13.22;35.26
56600;BME280;51832;48.152;11.530;2023-02-16T21:35:18;96363.81;;;13.75;34.52
56600;BME280;51832;48.152;11.530;2023-02-16T21:40:19;96340.19;;;13.80;34.12
56600;BME280;51832;48.152;11.530;2023-02-16T21:45:38;96348.97;;;13.74;34.40
56600;BME280;51832;48.152;11.530;2023-02-16T21:50:40;96339.69;;;13.46;34.85
56600;BME280;51832;48.152;11.530;2023-02-16T21:55:41;96344.84;;;13.60;34.69
56600;BME280;51832;48.152;11.530;2023-02-16T22:00:59;96346.16;;;13.50;34.60
56600;BME280;51832;48.152;11.530;2023-02-16T22:06:04;96346.16;;;13.50;34.78
56600;BME280;51832;48.152;11.530;2023-02-16T22:11:08;96340.88;;;13.26;35.27
56600;BME280;51832;48.152;11.530;2023-02-16T22:16:16;96339.84;;;13.51;34.88
56600;BME280;51832;48.152;11.530;2023-02-16T22:21:17;96346.75;;;13.28;35.30
56600;BME280;51832;48.152;11.530;2023-02-16T22:26:26;96345.34;;;13.50;35.18
56600;BME280;51832;48.152;11.530;2023-02-16T22:31:27;96338.22;;;13.50;34.91
56600;BME280;51832;48.152;11.530;2023-02-16T22:36:30;96335.81;;;13.49;34.52
56600;BME280;51832;48.152;11.530;2023-02-16T22:41:32;96344.16;;;13.46;35.10
56600;BME280;51832;48.152;11.530;2023-02-16T22:46:33;96345.94;;;13.52;34.58
56600;BME280;51832;48.152;11.530;2023-02-16T22:51:34;96334.78;;;13.68;34.30
56600;BME280;51832;48.152;11.530;2023-02-16T22:56:36;96333.47;;;13.59;34.65
56600;BME280;51832;48.152;11.530;2023-02-16T23:01:37;96321.72;;;13.05;35.54
56600;BME280;51832;48.152;11.530;2023-02-16T23:06:38;96331.81;;;13.40;34.97
56600;BME280;51832;48.152;11.530;2023-02-16T23:11:39;96330.00;;;13.59;34.77
56600;BME280;51832;48.152;11.530;2023-02-16T23:16:39;96315.97;;;13.15;35.20
56600;BME280;51832;48.152;11.530;2023-02-16T23:21:40;96325.59;;;13.52;35.07
56600;BME280;51832;48.152;11.530;2023-02-16T23:26:41;96322.69;;;13.79;34.35
56600;BME280;51832;48.152;11.530;2023-02-16T23:31:43;96339.72;;;13.65;34.66
56600;BME280;51832;48.152;11.530;2023-02-16T23:36:45;96326.69;;;13.45;34.50
56600;BME280;51832;48.152;11.530;2023-02-16T23:41:46;96312.97;;;13.73;34.18
56600;BME280;51832;48.152;11.530;2023-02-16T23:46:47;96320.84;;;13.61;34.45
56600;BME280;51832;48.152;11.530;2023-02-16T23:51:47;96333.41;;;13.66;34.63
56600;BME280;51832;48.152;11.530;2023-02-16T23:56:48;96315.47;;;13.86;34.25
